Time;durP1;ratioP1;P1;durP2;ratioP2;P2;SDS_P1;SDS_P2;PMS_P1;PMS_P2;Temp;Humidity;BMP_temperature;BMP_pressure;BME280_temperature;BME280_humidity;BME280_pressure;Samples;Min_cycle;Max_cycle;Signal;HPM_P1;HPM_P2
2023/06/10 00:00:05;;;;;;;5.68;3.08;;;22.30;73.40;;;;;;5031802;28;20120;-31
2023/06/10 00:02:33;;;;;;;4.03;2.92;;;;;;;;;;5031600;28;20572;-31
2023/06/10 00:04:59;;;;;;;3.67;2.83;;;22.20;73.00;;;;;;5032068;28;20084;-31
2023/06/10 00:07:26;;;;;;;4.70;2.50;;;;;;;;;;5031613;28;20041;-30
2023/06/10 00:09:53;;;;;;;3.38;2.53;;;22.80;65.40;;;;;;5033826;28;20530;-31
2023/06/10 00:12:20;;;;;;;3.33;2.70;;;22.30;73.10;;;;;;5051250;28;20106;-31
2023/06/10 00:14:50;;;;;;;3.60;3.00;;;23.10;69.60;;;;;;5051791;28;20056;-31
2023/06/10 00:17:17;;;;;;;3.70;2.80;;;;;;;;;;5051488;28;20421;-30
2023/06/10 00:19:46;;;;;;;4.20;2.80;;;23.10;73.50;;;;;;5051271;28;20492;-31
2023/06/10 00:22:14;;;;;;;3.13;2.70;;;;;;;;;;5051200;28;20049;-31
2023/06/10 00:24:41;;;;;;;3.83;2.70;;;;;;;;;;5051512;28;20049;-30
2023/06/10 00:27:09;;;;;;;5.43;3.15;;;;;;;;;;5039494;28;20061;-31
2023/06/10 00:29:36;;;;;;;3.45;2.78;;;21.50;73.20;;;;;;5051596;28;20120;-31
2023/06/10 00:32:05;;;;;;;4.47;3.00;;;22.20;57.00;;;;;;5051434;28;20158;-31
2023/06/10 00:34:33;;;;;;;4.15;2.83;;;;;;;;;;5051208;28;20128;-31
2023/06/10 00:36:59;;;;;;;4.35;3.00;;;22.40;61.80;;;;;;5052321;28;20421;-31
2023/06/10 00:39:26;;;;;;;3.83;2.70;;;22.00;72.90;;;;;;5055037;28;20041;-31
2023/06/10 00:41:53;;;;;;;6.47;2.80;;;21.90;72.90;;;;;;5055233;28;20504;-31
2023/06/10 00:44:20;;;;;;;4.22;2.90;;;;;;;;;;5054970;28;20120;-31
2023/06/10 00:46:46;;;;;;;4.28;3.22;;;22.50;73.20;;;;;;5055365;28;20132;-31
2023/06/10 00:49:14;;;;;;;4.00;2.80;;;22.30;73.10;;;;;;5054997;28;20127;-31
2023/06/10 00:51:41;;;;;;;4.35;2.90;;;22.50;74.00;;;;;;5055035;28;20132;-31
2023/06/10 00:54:08;;;;;;;4.97;3.10;;;21.10;61.10;;;;;;5043555;28;20371;-31
2023/06/10 00:56:35;;;;;;;3.38;2.70;;;22.80;61.50;;;;;;5035364;28;20379;-31
2023/06/10 00:59:02;;;;;;;3.95;2.75;;;;;;;;;;5035100;28;20053;-31
2023/06/10 01:01:30;;;;;;;3.75;2.78;;;22.30;73.10;;;;;;5043513;28;20444;-31
2023/06/10 01:03:58;;;;;;;4.13;2.70;;;22.60;67.70;;;;;;5054932;28;20041;-31
2023/06/10 01:06:33;;;;;;;3.20;2.90;;;22.50;74.00;;;;;;5055072;28;20603;-31
2023/06/10 01:09:03;;;;;;;3.75;2.90;;;22.40;73.50;;;;;;5055059;28;20059;-31
2023/06/10 01:11:30;;;;;;;4.85;2.88;;;22.20;74.00;;;;;;5055003;28;20454;-31
2023/06/10 01:13:57;;;;;;;4.30;2.65;;;22.70;73.70;;;;;;5054829;28;20080;-31
2023/06/10 01:16:25;;;;;;;3.63;2.72;;;22.80;73.50;;;;;;5055041;28;20113;-31
2023/06/10 01:18:52;;;;;;;3.80;3.00;;;22.10;73.40;;;;;;5054394;28;20095;-31
2023/06/10 01:21:24;;;;;;;4.15;2.85;;;22.00;59.20;;;;;;5054778;28;20057;-30
2023/06/10 01:23:52;;;;;;;4.07;2.70;;;21.60;63.20;;;;;;5054805;28;20049;-31
2023/06/10 01:26:19;;;;;;;3.65;2.80;;;;;;;;;;5026372;28;20068;-30
2023/06/10 01:28:48;;;;;;;4.50;3.05;;;21.60;73.40;;;;;;5034702;28;20051;-31
2023/06/10 01:31:17;;;;;;;3.92;2.88;;;22.00;56.90;;;;;;5034666;28;20140;-31
2023/06/10 01:33:46;;;;;;;4.25;3.20;;;22.00;73.70;;;;;;5034382;28;20088;-31
2023/06/10 01:36:13;;;;;;;4.03;2.55;;;;;;;;;;5050639;28;20045;-31
2023/06/10 01:38:43;;;;;;;3.58;2.78;;;22.60;73.30;;;;;;5054466;28;20088;-31
2023/06/10 01:41:10;;;;;;;3.47;2.65;;;21.90;73.30;;;;;;5054425;28;20103;-31
2023/06/10 01:43:38;;;;;;;3.70;2.70;;;21.80;73.00;;;;;;5054162;28;20476;-31
2023/06/10 01:46:05;;;;;;;3.78;2.80;;;21.70;73.70;;;;;;5054295;28;20049;-31
2023/06/10 01:48:32;;;;;;;3.33;2.75;;;22.10;73.40;;;;;;5053615;28;20124;-31
2023/06/10 01:50:59;;;;;;;5.35;2.88;;;;;;;;;;5037920;28;20059;-30
2023/06/10 01:53:26;;;;;;;3.65;2.70;;;22.40;73.60;;;;;;5054062;28;20048;-31
2023/06/10 01:55:54;;;;;;;3.65;2.70;;;22.30;73.80;;;;;;5054209;28;20049;-31
2023/06/10 01:58:21;;;;;;;4.60;2.90;;;21.50;73.00;;;;;;5054016;28;20055;-31
2023/06/10 02:00:48;;;;;;;3.67;2.65;;;;;;;;;;5053681;28;20118;-30
2023/06/10 02:03:15;;;;;;;3.17;2.70;;;22.20;68.20;;;;;;5053745;28;20545;-31
2023/06/10 02:05:42;;;;;;;3.45;2.80;;;;;;;;;;5053971;28;20463;-30
2023/06/10 02:08:09;;;;;;;4.20;2.70;;;21.90;72.80;;;;;;5053649;28;20485;-31
2023/06/10 02:10:36;;;;;;;3.40;2.80;;;21.90;73.10;;;;;;5053610;28;20056;-31
2023/06/10 02:13:04;;;;;;;5.80;3.03;;;22.10;73.00;;;;;;5053223;28;20497;-31
2023/06/10 02:15:31;;;;;;;3.53;2.90;;;22.00;72.00;;;;;;5053782;28;20485;-31
2023/06/10 02:17:58;;;;;;;5.38;2.88;;;22.00;73.10;;;;;;5053696;28;20080;-31
2023/06/10 02:20:25;;;;;;;4.82;2.90;;;;;;;;;;5053542;28;20067;-31
2023/06/10 02:22:52;;;;;;;3.97;2.83;;;22.10;73.40;;;;;;5053133;28;20128;-31
2023/06/10 02:25:19;;;;;;;3.72;2.70;;;;;;;;;;5050953;28;20559;-30
2023/06/10 02:27:46;;;;;;;4.35;3.08;;;20.90;73.20;;;;;;5033580;28;20049;-31
2023/06/10 02:30:15;;;;;;;3.88;2.97;;;21.90;56.80;;;;;;5033534;28;20041;-30
2023/06/10 02:32:42;;;;;;;3.30;2.97;;;;;;;;;;5033278;28;20057;-31
2023/06/10 02:35:12;;;;;;;4.43;2.83;;;22.30;60.40;;;;;;5033433;28;20060;-31
2023/06/10 02:37:39;;;;;;;3.20;2.70;;;;;;;;;;5047724;28;20529;-30
2023/06/10 02:40:08;;;;;;;5.72;3.08;;;21.30;68.70;;;;;;5053324;28;20048;-31
2023/06/10 02:42:35;;;;;;;3.75;2.78;;;;;;;;;;5052428;28;20544;-30
2023/06/10 02:45:02;;;;;;;3.25;2.72;;;21.90;72.90;;;;;;5053289;28;20127;-31
2023/06/10 02:47:30;;;;;;;3.15;2.60;;;21.90;56.80;;;;;;5061839;28;20127;-31
2023/06/10 02:49:57;;;;;;;3.53;2.60;;;22.80;73.80;;;;;;5072977;28;20152;-31
2023/06/10 02:52:24;;;;;;;4.25;3.13;;;;;;;;;;5072502;28;20527;-31
2023/06/10 02:54:51;;;;;;;3.70;2.80;;;;;;;;;;5073161;28;20053;-30
2023/06/10 02:57:18;;;;;;;3.75;2.75;;;20.90;72.80;;;;;;5068341;28;20044;-31
2023/06/10 02:59:45;;;;;;;2.90;2.50;;;22.00;73.00;;;;;;5051773;28;20037;-31
2023/06/10 03:02:12;;;;;;;4.03;2.80;;;;;;;;;;5051791;28;20131;-31
2023/06/10 03:04:40;;;;;;;3.50;2.90;;;22.10;56.90;;;;;;5052430;28;20045;-31
2023/06/10 03:07:08;;;;;;;5.15;2.80;;;21.40;72.80;;;;;;5052311;28;20045;-31
2023/06/10 03:09:35;;;;;;;3.65;2.83;;;21.60;68.20;;;;;;5052449;28;20090;-29
2023/06/10 03:12:02;;;;;;;3.70;3.00;;;;;;;;;;5052206;28;20049;-31
2023/06/10 03:14:29;;;;;;;4.00;2.72;;;22.40;73.30;;;;;;5052243;28;20132;-29
2023/06/10 03:16:55;;;;;;;3.97;2.58;;;21.70;73.30;;;;;;5049280;28;20095;-29
2023/06/10 03:19:23;;;;;;;4.65;2.83;;;;;;;;;;5051735;28;20386;-29
2023/06/10 03:22:08;;;;;;;3.35;2.78;;;21.60;72.90;;;;;;5052276;28;20045;-29
2023/06/10 03:24:36;;;;;;;3.33;2.78;;;21.50;73.70;;;;;;5052136;28;20124;-29
2023/06/10 03:27:04;;;;;;;4.00;2.67;;;21.80;72.20;;;;;;5050905;28;20055;-29
2023/06/10 03:29:32;;;;;;;3.90;3.00;;;22.10;73.50;;;;;;5052066;28;20052;-29
2023/06/10 03:31:59;;;;;;;3.50;2.90;;;;;;;;;;5051996;28;20076;-32
2023/06/10 03:34:25;;;;;;;3.63;2.92;;;22.00;73.10;;;;;;5051455;28;20084;-30
2023/06/10 03:36:53;;;;;;;4.93;2.80;;;21.60;56.90;;;;;;5048557;28;20116;-29
2023/06/10 03:39:20;;;;;;;5.07;3.08;;;21.90;74.10;;;;;;5051715;28;20498;-29
2023/06/10 03:41:47;;;;;;;3.65;2.55;;;;;;;;;;5050221;28;20147;-30
2023/06/10 03:44:14;;;;;;;3.83;2.88;;;21.80;58.90;;;;;;5051495;28;20134;-29
2023/06/10 03:46:41;;;;;;;3.75;2.67;;;21.10;60.20;;;;;;5051796;28;20136;-29
2023/06/10 03:49:09;;;;;;;4.03;2.78;;;21.80;73.90;;;;;;5052119;28;20119;-28
2023/06/10 03:51:36;;;;;;;3.58;2.63;;;21.60;69.90;;;;;;5051961;28;20468;-29
2023/06/10 03:54:04;;;;;;;3.53;2.60;;;22.10;73.30;;;;;;5051559;28;20657;-29
2023/06/10 03:56:32;;;;;;;3.30;2.53;;;21.60;73.80;;;;;;5040941;28;20124;-29
2023/06/10 03:58:58;;;;;;;3.35;2.50;;;21.00;73.70;;;;;;5031909;28;20048;-29
2023/06/10 04:01:26;;;;;;;3.67;2.80;;;;;;;;;;5031857;28;20132;-30
2023/06/10 04:03:54;;;;;;;3.20;2.67;;;;;;;;;;5031803;28;20079;-29
2023/06/10 04:06:22;;;;;;;3.97;2.55;;;22.00;73.30;;;;;;5036621;28;20049;-29
2023/06/10 04:08:49;;;;;;;4.75;2.80;;;22.10;72.10;;;;;;5051770;28;20052;-29
2023/06/10 04:11:17;;;;;;;5.63;2.67;;;21.70;56.90;;;;;;5050904;28;20417;-30
2023/06/10 04:13:44;;;;;;;3.80;2.70;;;;;;;;;;5051284;28;20049;-31
2023/06/10 04:16:11;;;;;;;3.33;2.50;;;;;;;;;;5051572;28;20057;-29
2023/06/10 04:18:38;;;;;;;4.40;2.80;;;;;;;;;;5050869;28;20049;-29
2023/06/10 04:21:05;;;;;;;3.83;2.65;;;22.00;73.70;;;;;;5048513;28;20123;-29
2023/06/10 04:23:32;;;;;;;3.38;2.83;;;;;;;;;;5049404;28;20053;-29
2023/06/10 04:26:00;;;;;;;3.53;2.33;;;21.60;73.90;;;;;;5048502;28;20127;-29
2023/06/10 04:28:28;;;;;;;4.05;2.70;;;21.20;59.20;;;;;;5049859;28;20049;-29
2023/06/10 04:30:54;;;;;;;2.97;2.38;;;21.50;59.00;;;;;;5050526;28;20045;-29
2023/06/10 04:33:21;;;;;;;2.95;2.15;;;22.30;74.30;;;;;;5050931;28;20394;-29
2023/06/10 04:35:48;;;;;;;3.30;2.53;;;21.80;59.10;;;;;;5050947;28;20110;-29
2023/06/10 04:38:15;;;;;;;3.08;2.42;;;21.50;60.00;;;;;;5050167;28;20041;-29
2023/06/10 04:40:42;;;;;;;3.50;2.30;;;21.80;73.60;;;;;;5050257;28;20052;-29
2023/06/10 04:43:08;;;;;;;3.67;2.63;;;21.60;73.20;;;;;;5050933;28;20053;-29
2023/06/10 04:45:36;;;;;;;3.70;2.60;;;22.10;65.10;;;;;;5051094;28;20041;-29
2023/06/10 04:48:03;;;;;;;3.47;2.50;;;21.50;62.50;;;;;;5051127;28;20051;-29
2023/06/10 04:50:30;;;;;;;3.30;2.40;;;21.80;73.20;;;;;;5051180;28;20119;-29
2023/06/10 04:52:57;;;;;;;3.20;2.47;;;21.30;73.00;;;;;;5050430;28;20049;-29
2023/06/10 04:55:24;;;;;;;3.72;2.70;;;21.20;67.70;;;;;;5050937;28;20041;-29
2023/06/10 04:57:51;;;;;;;3.72;2.47;;;21.70;73.20;;;;;;5050814;28;20051;-29
2023/06/10 05:00:18;;;;;;;4.90;2.60;;;22.10;72.30;;;;;;5048456;28;20052;-29
2023/06/10 05:02:49;;;;;;;3.55;2.50;;;21.60;56.80;;;;;;5050072;28;20087;-31
2023/06/10 05:05:16;;;;;;;3.20;2.50;;;21.70;65.00;;;;;;5050790;28;20071;-31
2023/06/10 05:07:43;;;;;;;3.88;2.75;;;;;;;;;;5051157;28;20128;-30
2023/06/10 05:10:11;;;;;;;3.80;2.42;;;21.40;63.40;;;;;;5050712;28;20052;-31
2023/06/10 05:12:39;;;;;;;3.17;2.55;;;21.40;73.10;;;;;;5048194;28;20052;-30
2023/06/10 05:15:07;;;;;;;5.47;2.63;;;21.60;56.90;;;;;;5050220;28;20044;-31
2023/06/10 05:17:34;;;;;;;3.03;2.28;;;21.00;73.10;;;;;;5050967;28;20057;-31
2023/06/10 05:20:02;;;;;;;3.13;2.17;;;21.60;56.80;;;;;;5050173;28;20047;-32
2023/06/10 05:22:29;;;;;;;3.17;2.50;;;20.80;72.90;;;;;;5048514;28;20056;-31
2023/06/10 05:24:56;;;;;;;3.53;2.67;;;;;;;;;;5053490;28;20045;-32
2023/06/10 05:27:24;;;;;;;3.47;2.30;;;21.30;73.10;;;;;;5051456;28;20512;-31
2023/06/10 05:29:51;;;;;;;3.92;2.78;;;20.70;69.40;;;;;;5054386;28;20406;-31
2023/06/10 05:32:18;;;;;;;4.00;2.25;;;21.50;73.20;;;;;;5053646;28;20045;-30
2023/06/10 05:34:44;;;;;;;4.45;2.47;;;22.10;63.50;;;;;;5056268;28;20123;-31
2023/06/10 05:37:13;;;;;;;3.67;2.40;;;22.40;73.20;;;;;;5059383;28;20056;-30
2023/06/10 05:39:40;;;;;;;5.43;2.40;;;22.40;66.30;;;;;;5055989;28;20045;-31
2023/06/10 05:42:08;;;;;;;4.70;2.60;;;21.60;56.90;;;;;;5061413;28;20052;-31
2023/06/10 05:44:35;;;;;;;4.90;2.45;;;;;;;;;;5053885;28;20128;-33
2023/06/10 05:47:02;;;;;;;3.72;2.38;;;21.00;73.70;;;;;;5052374;28;20132;-31
2023/06/10 05:49:29;;;;;;;3.47;2.47;;;;;;;;;;5051371;28;20052;-31
2023/06/10 05:51:58;;;;;;;4.43;2.67;;;21.50;59.80;;;;;;5053502;28;20051;-31
2023/06/10 05:54:26;;;;;;;2.83;2.20;;;21.60;57.00;;;;;;5053502;28;20041;-31
2023/06/10 05:56:53;;;;;;;4.47;2.50;;;;;;;;;;5053377;28;20041;-32
2023/06/10 05:59:20;;;;;;;4.13;2.47;;;22.00;73.50;;;;;;5054089;28;20227;-31
2023/06/10 06:01:46;;;;;;;4.95;2.53;;;21.40;74.00;;;;;;5054171;28;20155;-31
2023/06/10 06:04:13;;;;;;;4.18;2.38;;;;;;;;;;5053413;28;20127;-31
2023/06/10 06:06:41;;;;;;;4.38;2.60;;;22.50;74.30;;;;;;5054000;28;20049;-31
2023/06/10 06:09:08;;;;;;;3.88;2.72;;;21.70;68.40;;;;;;5053949;28;20049;-31
2023/06/10 06:11:36;;;;;;;2.75;2.33;;;21.80;71.00;;;;;;5053989;28;20049;-30
2023/06/10 06:14:02;;;;;;;4.32;2.45;;;21.80;73.80;;;;;;5053754;28;20064;-31
2023/06/10 06:16:29;;;;;;;3.00;2.20;;;22.10;73.60;;;;;;5053553;28;20116;-30
2023/06/10 06:18:56;;;;;;;3.88;2.45;;;21.50;70.10;;;;;;5053834;28;20492;-31
2023/06/10 06:21:23;;;;;;;3.33;2.35;;;20.70;73.50;;;;;;5053236;28;20048;-30
2023/06/10 06:23:49;;;;;;;2.92;2.22;;;21.20;73.50;;;;;;5053782;28;20183;-30
2023/06/10 06:26:16;;;;;;;4.57;2.42;;;21.20;64.60;;;;;;5043574;28;20099;-31
2023/06/10 06:28:44;;;;;;;3.38;2.38;;;21.60;57.00;;;;;;5033603;28;20135;-31
2023/06/10 06:31:11;;;;;;;3.35;2.58;;;21.10;73.70;;;;;;5046479;28;20044;-30
2023/06/10 06:33:37;;;;;;;5.35;2.53;;;21.90;73.50;;;;;;5064913;28;20081;-30
2023/06/10 06:36:04;;;;;;;3.10;2.40;;;21.50;58.40;;;;;;5070843;28;20055;-31
2023/06/10 06:38:31;;;;;;;3.70;2.55;;;;;;;;;;5052844;28;20052;-30
2023/06/10 06:41:02;;;;;;;3.05;2.42;;;;;;;;;;5053056;28;20106;-32
2023/06/10 06:43:29;;;;;;;3.35;2.40;;;21.20;72.90;;;;;;5052500;28;20505;-30
2023/06/10 06:45:57;;;;;;;3.25;2.60;;;21.50;73.10;;;;;;5052466;28;20083;-31
2023/06/10 06:48:24;;;;;;;4.13;2.40;;;;;;;;;;5052780;28;20127;-30
2023/06/10 06:50:51;;;;;;;3.95;2.50;;;21.70;73.60;;;;;;5053061;28;20120;-31
2023/06/10 06:53:18;;;;;;;4.00;2.47;;;21.50;73.60;;;;;;5052756;28;20041;-30
2023/06/10 06:55:45;;;;;;;3.20;2.47;;;;;;;;;;5052864;28;20052;-33
2023/06/10 06:58:11;;;;;;;3.47;2.55;;;21.30;72.90;;;;;;5053271;28;20128;-31
2023/06/10 07:00:38;;;;;;;3.10;2.35;;;20.60;73.10;;;;;;5046823;28;20050;-31
2023/06/10 07:03:06;;;;;;;3.35;2.70;;;22.10;58.00;;;;;;5041547;28;20141;-31
2023/06/10 07:05:33;;;;;;;3.90;2.55;;;;;;;;;;5042821;28;20059;-31
2023/06/10 07:08:00;;;;;;;3.08;2.35;;;21.50;73.10;;;;;;5042592;28;20044;-30
2023/06/10 07:10:27;;;;;;;3.13;2.38;;;22.00;74.10;;;;;;5045244;28;20128;-30
2023/06/10 07:12:54;;;;;;;5.13;2.63;;;;;;;;;;5052519;28;20110;-30
2023/06/10 07:15:21;;;;;;;3.08;2.50;;;21.60;73.90;;;;;;5052680;28;20055;-30
2023/06/10 07:17:48;;;;;;;4.38;2.42;;;;;;;;;;5052702;28;20482;-31
2023/06/10 07:20:17;;;;;;;3.92;2.70;;;21.70;56.80;;;;;;5047124;28;20516;-32
2023/06/10 07:22:44;;;;;;;3.72;2.33;;;22.40;73.40;;;;;;5052336;28;20049;-30
2023/06/10 07:25:11;;;;;;;2.65;2.20;;;21.50;73.10;;;;;;5051220;28;20064;-31
2023/06/10 07:27:38;;;;;;;3.13;2.33;;;;;;;;;;5052665;28;20052;-32
2023/06/10 07:30:07;;;;;;;3.95;2.70;;;22.00;73.60;;;;;;5064345;28;20123;-33
2023/06/10 07:32:34;;;;;;;3.95;2.40;;;;;;;;;;5072256;28;20057;-33
2023/06/10 07:35:01;;;;;;;2.65;2.30;;;21.90;73.60;;;;;;5072413;28;20131;-33
2023/06/10 07:37:29;;;;;;;3.92;2.70;;;21.70;56.80;;;;;;5058162;28;20161;-32
2023/06/10 07:39:56;;;;;;;3.10;2.50;;;;;;;;;;5044595;28;20052;-31
2023/06/10 07:42:23;;;;;;;3.50;2.10;;;;;;;;;;5037467;28;20607;-33
2023/06/10 07:44:50;;;;;;;3.00;2.30;;;;;;;;;;5052269;28;20519;-31
2023/06/10 07:47:17;;;;;;;3.63;2.53;;;21.60;73.40;;;;;;5051662;28;20470;-33
2023/06/10 07:49:44;;;;;;;3.50;2.40;;;21.90;73.60;;;;;;5052150;28;20131;-33
2023/06/10 07:52:11;;;;;;;3.70;2.42;;;;;;;;;;5042807;28;20545;-32
2023/06/10 07:54:39;;;;;;;3.67;2.65;;;21.40;72.90;;;;;;5037253;28;20486;-33
2023/06/10 07:57:07;;;;;;;3.08;2.50;;;21.30;72.80;;;;;;5040085;28;20457;-33
2023/06/10 07:59:34;;;;;;;2.88;2.30;;;22.10;74.00;;;;;;5042549;28;20493;-33
2023/06/10 08:02:01;;;;;;;2.80;2.20;;;;;;;;;;5051120;28;20047;-32
2023/06/10 08:04:28;;;;;;;3.47;2.53;;;21.50;72.90;;;;;;5051772;28;20136;-33
2023/06/10 08:06:54;;;;;;;2.95;2.08;;;22.60;73.40;;;;;;5048621;28;20124;-33
2023/06/10 08:09:23;;;;;;;3.03;2.30;;;;;;;;;;5047787;28;20080;-33
2023/06/10 08:11:51;;;;;;;3.17;2.35;;;21.70;69.20;;;;;;5051735;28;20041;-33
2023/06/10 08:14:17;;;;;;;2.75;2.25;;;21.60;67.00;;;;;;5044936;28;20128;-33
2023/06/10 08:16:44;;;;;;;2.80;2.20;;;22.80;73.50;;;;;;5043627;28;20471;-33
2023/06/10 08:19:11;;;;;;;4.15;2.72;;;;;;;;;;5051752;28;20049;-33
2023/06/10 08:21:39;;;;;;;2.80;2.30;;;21.50;72.80;;;;;;5043067;28;20048;-33
2023/06/10 08:24:06;;;;;;;3.05;2.33;;;22.40;71.00;;;;;;5044473;28;20053;-33
2023/06/10 08:26:33;;;;;;;2.97;2.38;;;21.70;73.50;;;;;;5064239;28;20136;-33
2023/06/10 08:29:01;;;;;;;3.90;2.50;;;22.40;67.00;;;;;;5071724;28;20048;-33
2023/06/10 08:31:28;;;;;;;3.67;2.55;;;22.60;65.80;;;;;;5071264;28;20148;-33
2023/06/10 08:33:54;;;;;;;4.72;2.53;;;21.60;73.30;;;;;;5064042;28;20116;-33
2023/06/10 08:36:22;;;;;;;6.78;2.97;;;;;;;;;;5049544;28;20728;-33
2023/06/10 08:38:48;;;;;;;6.47;2.63;;;21.80;73.40;;;;;;5040332;28;20120;-32
2023/06/10 08:41:16;;;;;;;4.53;2.60;;;22.60;74.90;;;;;;5030866;28;20053;-33
2023/06/10 08:43:45;;;;;;;4.32;2.92;;;22.60;74.40;;;;;;5030568;28;20473;-33
2023/06/10 08:46:13;;;;;;;7.32;2.85;;;21.70;73.90;;;;;;5031426;28;20132;-33
2023/06/10 08:48:43;;;;;;;5.57;2.63;;;22.00;57.70;;;;;;5031445;28;20128;-32
2023/06/10 08:51:09;;;;;;;4.25;2.58;;;21.80;73.60;;;;;;5040767;28;20490;-33
2023/06/10 08:53:36;;;;;;;5.57;2.50;;;;;;;;;;5042217;28;20123;-31
2023/06/10 08:56:04;;;;;;;4.38;3.00;;;;;;;;;;5031369;28;20132;-33
2023/06/10 08:58:33;;;;;;;2.90;2.25;;;;;;;;;;5032380;28;20087;-32
2023/06/10 09:00:59;;;;;;;5.95;2.58;;;22.00;73.40;;;;;;5034997;28;20052;-33
2023/06/10 09:03:27;;;;;;;4.45;2.58;;;22.20;57.40;;;;;;5033511;28;20073;-32
2023/06/10 09:05:55;;;;;;;6.03;2.67;;;21.60;73.90;;;;;;5034747;28;20049;-33
2023/06/10 09:08:21;;;;;;;9.60;2.75;;;22.20;73.20;;;;;;5049889;28;20107;-33
2023/06/10 09:10:48;;;;;;;4.50;2.70;;;23.20;73.80;;;;;;5055204;28;20110;-33
2023/06/10 09:13:18;;;;;;;3.25;2.53;;;;;;;;;;5054663;28;20131;-33
2023/06/10 09:15:45;;;;;;;4.25;2.55;;;;;;;;;;5046314;28;20151;-32
2023/06/10 09:18:12;;;;;;;3.88;2.60;;;21.80;73.70;;;;;;5054371;28;20502;-33
2023/06/10 09:20:42;;;;;;;4.53;2.40;;;22.20;57.40;;;;;;5053886;28;20084;-32
2023/06/10 09:23:09;;;;;;;5.72;3.15;;;22.20;73.10;;;;;;5054501;28;20470;-33
2023/06/10 09:25:37;;;;;;;3.92;2.58;;;22.00;60.60;;;;;;5049462;28;20049;-32
2023/06/10 09:28:04;;;;;;;2.80;2.45;;;22.40;73.10;;;;;;5049208;28;20056;-33
2023/06/10 09:30:32;;;;;;;4.18;2.38;;;22.60;69.70;;;;;;5054187;28;20545;-33
2023/06/10 09:33:00;;;;;;;4.15;2.22;;;21.90;61.60;;;;;;5052916;28;20482;-33
2023/06/10 09:35:27;;;;;;;3.35;2.53;;;22.70;73.70;;;;;;5051361;28;20509;-32
2023/06/10 09:37:56;;;;;;;4.50;2.63;;;22.50;57.50;;;;;;5042729;28;20083;-33
2023/06/10 09:40:22;;;;;;;5.10;2.70;;;22.60;73.70;;;;;;5053206;28;20048;-33
2023/06/10 09:42:54;;;;;;;3.00;2.40;;;22.40;74.00;;;;;;5053613;28;20143;-33
2023/06/10 09:45:21;;;;;;;4.55;2.42;;;22.10;73.20;;;;;;5054299;28;20044;-33
2023/06/10 09:47:48;;;;;;;3.40;2.42;;;;;;;;;;5054447;28;20132;-32
2023/06/10 09:50:15;;;;;;;3.38;2.40;;;22.20;73.10;;;;;;5051517;28;20124;-33
2023/06/10 09:52:42;;;;;;;3.63;2.58;;;;;;;;;;5052752;28;20049;-31
2023/06/10 09:55:11;;;;;;;4.95;2.40;;;21.50;72.60;;;;;;5053649;28;20124;-33
2023/06/10 09:57:38;;;;;;;6.88;2.70;;;22.50;73.90;;;;;;5053285;28;20391;-33
2023/06/10 10:00:07;;;;;;;4.20;2.25;;;22.00;73.60;;;;;;5053321;28;20049;-30
2023/06/10 10:02:34;;;;;;;4.28;2.30;;;23.20;57.60;;;;;;5050398;28;20044;-30
2023/06/10 10:05:03;;;;;;;4.35;2.42;;;22.50;72.30;;;;;;5053800;28;20113;-30
2023/06/10 10:07:30;;;;;;;5.10;2.42;;;22.70;73.90;;;;;;5053635;28;20654;-30
2023/06/10 10:09:57;;;;;;;3.72;2.28;;;22.50;68.80;;;;;;5053320;28;20048;-30
2023/06/10 10:12:25;;;;;;;3.83;2.20;;;22.50;57.20;;;;;;5053740;28;20043;-30
2023/06/10 10:14:52;;;;;;;4.85;2.40;;;22.40;73.30;;;;;;5054106;28;20476;-30
2023/06/10 10:17:18;;;;;;;4.05;2.20;;;22.70;73.10;;;;;;5036526;28;20056;-30
2023/06/10 10:19:48;;;;;;;4.95;2.28;;;22.40;61.30;;;;;;5033716;28;20490;-30
2023/06/10 10:22:18;;;;;;;4.70;2.38;;;23.00;60.80;;;;;;5033260;28;20398;-30
2023/06/10 10:24:47;;;;;;;6.00;2.60;;;22.50;57.10;;;;;;5033769;28;20133;-31
2023/06/10 10:27:18;;;;;;;4.88;2.60;;;22.90;73.10;;;;;;5052014;28;20128;-30
2023/06/10 10:29:47;;;;;;;3.30;2.15;;;22.10;72.60;;;;;;5053783;28;20128;-30
2023/06/10 10:32:14;;;;;;;3.13;2.25;;;;;;;;;;5053354;28;20442;-30
2023/06/10 10:34:43;;;;;;;3.65;2.40;;;22.30;73.10;;;;;;5053739;28;20110;-30
2023/06/10 10:37:10;;;;;;;3.95;2.38;;;;;;;;;;5051341;28;20588;-30
2023/06/10 10:39:37;;;;;;;3.30;2.38;;;22.70;72.70;;;;;;5049744;28;20560;-30
2023/06/10 10:42:04;;;;;;;3.95;2.67;;;23.10;64.00;;;;;;5046345;28;20053;-30
2023/06/10 10:44:31;;;;;;;3.15;2.42;;;22.10;73.30;;;;;;5045036;28;20051;-30
2023/06/10 10:46:59;;;;;;;3.50;2.60;;;23.50;60.30;;;;;;5044715;28;20047;-30
2023/06/10 10:49:26;;;;;;;4.13;2.60;;;;;;;;;;5049966;28;20067;-32
2023/06/10 10:51:57;;;;;;;4.28;2.60;;;22.50;72.60;;;;;;5050064;28;20068;-32
2023/06/10 10:54:29;;;;;;;7.82;2.60;;;22.50;56.90;;;;;;5051038;28;20680;-32
2023/06/10 10:57:15;;;;;;;5.30;2.45;;;22.50;56.80;;;;;;5052605;28;20436;-32
2023/06/10 11:00:01;;;;;;;2.97;2.20;;;22.20;72.30;;;;;;5037608;28;20049;-33
2023/06/10 11:02:42;;;;;;;6.07;3.17;;;22.60;56.80;;;;;;5034255;28;20475;-31
2023/06/10 11:05:10;;;;;;;5.80;3.33;;;22.60;56.90;;;;;;5052616;28;20498;-32
2023/06/10 11:07:37;;;;;;;12.40;3.78;;;22.40;65.40;;;;;;5043259;28;20511;-32
2023/06/10 11:10:06;;;;;;;9.30;4.07;;;22.70;73.20;;;;;;5042962;28;20056;-32
2023/06/10 11:12:51;;;;;;;12.75;4.78;;;22.30;63.40;;;;;;5031079;28;20132;-32
2023/06/10 11:15:23;;;;;;;12.05;4.43;;;22.90;73.40;;;;;;5042710;28;20044;-32
2023/06/10 11:18:24;;;;;;;17.17;4.78;;;23.20;61.70;;;;;;5052405;28;20132;-32
2023/06/10 11:20:59;;;;;;;10.70;4.75;;;22.30;70.10;;;;;;4992298;28;20069;-32
2023/06/10 11:23:43;;;;;;;12.15;4.28;;;22.00;59.90;;;;;;5045640;28;20723;-32
2023/06/10 11:26:14;;;;;;;14.35;4.55;;;23.80;73.70;;;;;;5051586;28;20391;-32
2023/06/10 11:28:41;;;;;;;10.98;4.50;;;23.70;73.50;;;;;;5052334;28;20505;-32
2023/06/10 11:31:07;;;;;;;12.25;4.05;;;22.90;64.00;;;;;;5049436;28;20124;-32
2023/06/10 11:33:35;;;;;;;16.40;4.35;;;23.90;59.10;;;;;;5051599;28;20144;-32
2023/06/10 11:36:02;;;;;;;9.68;4.40;;;21.80;72.70;;;;;;5051335;28;20128;-32
2023/06/10 11:38:29;;;;;;;8.40;4.18;;;23.40;74.00;;;;;;5049377;28;20080;-32
2023/06/10 11:40:56;;;;;;;7.82;3.72;;;;;;;;;;5041349;28;20406;-31
2023/06/10 11:43:22;;;;;;;10.20;3.88;;;22.90;73.90;;;;;;5043749;28;20397;-32
2023/06/10 11:45:55;;;;;;;9.25;3.83;;;22.90;73.30;;;;;;5052088;28;20049;-32
2023/06/10 11:48:22;;;;;;;12.25;3.97;;;;;;;;;;5047416;28;20562;-31
2023/06/10 11:50:50;;;;;;;8.48;4.00;;;22.80;73.20;;;;;;5030909;28;20478;-32
2023/06/10 11:53:16;;;;;;;7.75;3.88;;;23.60;73.40;;;;;;5051295;28;20045;-32
2023/06/10 11:55:44;;;;;;;9.18;3.95;;;;;;;;;;5051548;28;20553;-32
2023/06/10 11:58:14;;;;;;;9.15;4.07;;;22.50;73.20;;;;;;5051748;28;20129;-32
2023/06/10 12:00:45;;;;;;;11.77;4.07;;;23.70;72.10;;;;;;5051612;28;20094;-32
2023/06/10 12:03:13;;;;;;;8.80;3.70;;;;;;;;;;5047260;28;20169;-32
2023/06/10 12:05:39;;;;;;;9.10;3.78;;;23.00;74.20;;;;;;5038578;28;20128;-32
2023/06/10 12:08:11;;;;;;;8.23;3.53;;;22.90;57.60;;;;;;5033804;28;20128;-31
2023/06/10 12:10:41;;;;;;;10.07;4.00;;;22.80;60.60;;;;;;5051446;28;20057;-32
2023/06/10 12:13:08;;;;;;;7.00;3.95;;;;;;;;;;5051077;28;20048;-31
2023/06/10 12:15:35;;;;;;;8.38;4.05;;;23.60;74.40;;;;;;5051383;28;20132;-32
2023/06/10 12:18:02;;;;;;;9.32;4.03;;;23.10;73.80;;;;;;5051443;28;20075;-32
2023/06/10 12:20:29;;;;;;;8.13;3.25;;;22.90;64.30;;;;;;5050794;28;20063;-32
2023/06/10 12:22:56;;;;;;;7.53;3.50;;;22.40;73.10;;;;;;5051101;28;20037;-32
2023/06/10 12:25:27;;;;;;;8.02;3.80;;;23.60;69.10;;;;;;5049230;28;20129;-32
2023/06/10 12:27:54;;;;;;;9.35;3.53;;;22.90;73.00;;;;;;5044860;28;20056;-32
2023/06/10 12:30:22;;;;;;;7.85;3.30;;;23.30;58.40;;;;;;5051256;28;20037;-32
2023/06/10 12:32:48;;;;;;;10.40;3.60;;;22.70;72.90;;;;;;5036070;28;20123;-32
2023/06/10 12:35:18;;;;;;;7.78;3.42;;;22.70;62.20;;;;;;5039033;28;20124;-32
2023/06/10 12:37:55;;;;;;;7.18;3.60;;;22.70;73.70;;;;;;5054935;28;20049;-30
2023/06/10 12:40:28;;;;;;;6.35;3.50;;;22.90;57.50;;;;;;5055120;28;20126;-31
2023/06/10 12:42:55;;;;;;;7.32;3.40;;;22.80;73.70;;;;;;5052285;28;20041;-30
2023/06/10 12:45:28;;;;;;;5.85;2.97;;;23.20;66.60;;;;;;5035787;28;20127;-30
2023/06/10 12:47:59;;;;;;;9.00;3.42;;;22.90;73.20;;;;;;5046332;28;20131;-30
2023/06/10 12:50:26;;;;;;;7.45;3.28;;;23.20;71.90;;;;;;5054287;28;20055;-31
2023/06/10 12:52:53;;;;;;;6.35;3.70;;;23.00;73.90;;;;;;5055417;28;20477;-31
2023/06/10 12:55:19;;;;;;;4.90;2.95;;;23.30;65.60;;;;;;5045611;28;20050;-30
2023/06/10 12:57:51;;;;;;;5.68;2.78;;;23.50;70.80;;;;;;5041550;28;20103;-30
2023/06/10 13:00:19;;;;;;;5.82;3.20;;;23.30;73.30;;;;;;5051441;28;20123;-30
2023/06/10 13:02:46;;;;;;;8.80;3.40;;;;;;;;;;5054116;28;20037;-32
2023/06/10 13:05:13;;;;;;;4.93;3.00;;;22.90;72.80;;;;;;5049447;28;20073;-30
2023/06/10 13:07:41;;;;;;;7.28;3.40;;;23.10;73.30;;;;;;5043906;28;20117;-30
2023/06/10 13:10:09;;;;;;;6.28;3.30;;;23.00;57.50;;;;;;5049257;28;20080;-31
2023/06/10 13:12:36;;;;;;;7.10;3.15;;;;;;;;;;5053475;28;20067;-30